KPHN

St Clair County International Airport

Port Huron, Michigan, USA
METAR KPHN 201255Z AUTO 22003KT 10SM CLR 00/M05 A2984 RMK AO2
Observed Flight Rules
Jan-20 @ 12:55 UTC (18 minutes ago) Visual Flight Rules
Wind Visibility Clouds
220° at 3 knots 10 miles
  • Clear skies
Temperatures Readings
Current 0°C / 32°F
Dewpoint -5°C / 23°F
Humidity 69%
Altimeter 29.84" Hg
Pressure 1010 hPa
Elevation 198
METAR KPHN 201255Z AUTO 22003KT 10SM CLR 00/M05 A2984 RMK AO2
Observed Flight Rules
Jan-20 @ 12:55 UTC
(18 minutes ago)
VFR
Wind Visibility
220° at 3 knots 10 miles
Clouds
  • Clear skies
Temperature Dewpoint
0°C / 32°F -5°C / 23°F
Humidity Altimeter Pressure
69% 29.84" Hg 1010 hPa